sensor_id;sensor_type;location;lat;lon;timestamp;P1;durP1;ratioP1;P2;durP2;ratioP2
8702;SDS011;9002;42.708;23.186;2023-05-16T00:00:16;5.50;;;5.00;;
8702;SDS011;9002;42.708;23.186;2023-05-16T00:02:44;5.87;;;5.27;;
8702;SDS011;9002;42.708;23.186;2023-05-16T00:05:11;5.73;;;5.23;;
8702;SDS011;9002;42.708;23.186;2023-05-16T00:07:40;5.13;;;4.73;;
8702;SDS011;9002;42.708;23.186;2023-05-16T00:10:08;5.80;;;5.30;;
8702;SDS011;9002;42.708;23.186;2023-05-16T00:12:35;5.60;;;5.20;;
8702;SDS011;9002;42.708;23.186;2023-05-16T00:15:04;5.97;;;5.47;;
8702;SDS011;9002;42.708;23.186;2023-05-16T00:17:34;5.40;;;5.00;;
8702;SDS011;9002;42.708;23.186;2023-05-16T00:20:01;5.60;;;5.10;;
8702;SDS011;9002;42.708;23.186;2023-05-16T00:22:35;5.17;;;4.70;;
8702;SDS011;9002;42.708;23.186;2023-05-16T00:25:02;5.70;;;5.20;;
8702;SDS011;9002;42.708;23.186;2023-05-16T00:27:29;5.70;;;5.17;;
8702;SDS011;9002;42.708;23.186;2023-05-16T00:29:56;5.43;;;5.03;;
8702;SDS011;9002;42.708;23.186;2023-05-16T00:32:22;5.47;;;5.07;;
8702;SDS011;9002;42.708;23.186;2023-05-16T00:34:51;5.20;;;4.80;;
8702;SDS011;9002;42.708;23.186;2023-05-16T00:37:17;5.83;;;5.33;;
8702;SDS011;9002;42.708;23.186;2023-05-16T00:42:19;5.20;;;4.80;;
8702;SDS011;9002;42.708;23.186;2023-05-16T00:44:46;5.73;;;5.27;;
8702;SDS011;9002;42.708;23.186;2023-05-16T00:47:13;5.13;;;4.73;;
8702;SDS011;9002;42.708;23.186;2023-05-16T00:49:39;5.53;;;5.10;;
8702;SDS011;9002;42.708;23.186;2023-05-16T00:52:08;6.03;;;5.53;;
8702;SDS011;9002;42.708;23.186;2023-05-16T00:54:35;6.07;;;5.57;;
8702;SDS011;9002;42.708;23.186;2023-05-16T00:57:02;5.67;;;5.17;;
8702;SDS011;9002;42.708;23.186;2023-05-16T00:59:30;5.67;;;5.10;;
8702;SDS011;9002;42.708;23.186;2023-05-16T01:01:58;5.43;;;4.93;;
8702;SDS011;9002;42.708;23.186;2023-05-16T01:04:25;5.17;;;4.77;;
8702;SDS011;9002;42.708;23.186;2023-05-16T01:06:53;5.90;;;5.40;;
8702;SDS011;9002;42.708;23.186;2023-05-16T01:09:22;5.77;;;5.33;;
8702;SDS011;9002;42.708;23.186;2023-05-16T01:11:50;5.57;;;5.17;;
8702;SDS011;9002;42.708;23.186;2023-05-16T01:16:49;5.40;;;5.00;;
8702;SDS011;9002;42.708;23.186;2023-05-16T01:19:27;5.53;;;5.03;;
8702;SDS011;9002;42.708;23.186;2023-05-16T01:22:11;5.70;;;5.20;;
8702;SDS011;9002;42.708;23.186;2023-05-16T01:24:53;5.07;;;4.67;;
8702;SDS011;9002;42.708;23.186;2023-05-16T01:27:29;5.80;;;5.30;;
8702;SDS011;9002;42.708;23.186;2023-05-16T01:29:57;5.30;;;4.90;;
8702;SDS011;9002;42.708;23.186;2023-05-16T01:32:23;5.70;;;5.20;;
8702;SDS011;9002;42.708;23.186;2023-05-16T01:34:50;5.60;;;5.20;;
8702;SDS011;9002;42.708;23.186;2023-05-16T01:37:18;5.60;;;5.10;;
8702;SDS011;9002;42.708;23.186;2023-05-16T01:39:51;4.90;;;4.50;;
8702;SDS011;9002;42.708;23.186;2023-05-16T01:42:23;5.93;;;5.43;;
8702;SDS011;9002;42.708;23.186;2023-05-16T01:44:54;5.07;;;4.67;;
8702;SDS011;9002;42.708;23.186;2023-05-16T01:47:25;5.30;;;4.83;;
8702;SDS011;9002;42.708;23.186;2023-05-16T01:49:56;5.30;;;4.90;;
8702;SDS011;9002;42.708;23.186;2023-05-16T01:52:26;5.30;;;4.90;;
8702;SDS011;9002;42.708;23.186;2023-05-16T01:54:57;5.60;;;5.10;;
8702;SDS011;9002;42.708;23.186;2023-05-16T01:57:25;5.50;;;5.10;;
8702;SDS011;9002;42.708;23.186;2023-05-16T01:59:55;5.70;;;5.20;;
8702;SDS011;9002;42.708;23.186;2023-05-16T02:02:23;5.50;;;5.10;;
8702;SDS011;9002;42.708;23.186;2023-05-16T02:04:49;5.07;;;4.67;;
8702;SDS011;9002;42.708;23.186;2023-05-16T02:07:16;5.23;;;4.83;;
8702;SDS011;9002;42.708;23.186;2023-05-16T02:09:43;5.20;;;4.70;;
8702;SDS011;9002;42.708;23.186;2023-05-16T02:12:10;5.20;;;4.80;;
8702;SDS011;9002;42.708;23.186;2023-05-16T02:14:37;5.60;;;5.20;;
8702;SDS011;9002;42.708;23.186;2023-05-16T02:17:05;5.60;;;5.17;;
8702;SDS011;9002;42.708;23.186;2023-05-16T02:19:32;5.10;;;4.70;;
8702;SDS011;9002;42.708;23.186;2023-05-16T02:21:59;5.23;;;4.83;;
8702;SDS011;9002;42.708;23.186;2023-05-16T02:24:26;5.30;;;4.90;;
8702;SDS011;9002;42.708;23.186;2023-05-16T02:26:53;5.67;;;5.17;;
8702;SDS011;9002;42.708;23.186;2023-05-16T02:29:19;5.17;;;4.77;;
8702;SDS011;9002;42.708;23.186;2023-05-16T02:31:46;5.07;;;4.67;;
8702;SDS011;9002;42.708;23.186;2023-05-16T02:34:14;4.93;;;4.53;;
8702;SDS011;9002;42.708;23.186;2023-05-16T02:36:41;5.43;;;4.93;;
8702;SDS011;9002;42.708;23.186;2023-05-16T02:39:08;4.93;;;4.53;;
8702;SDS011;9002;42.708;23.186;2023-05-16T02:41:35;5.20;;;4.80;;
8702;SDS011;9002;42.708;23.186;2023-05-16T02:44:02;5.07;;;4.67;;
8702;SDS011;9002;42.708;23.186;2023-05-16T02:46:29;5.57;;;5.17;;
8702;SDS011;9002;42.708;23.186;2023-05-16T02:48:58;5.00;;;4.60;;
8702;SDS011;9002;42.708;23.186;2023-05-16T02:51:27;5.33;;;4.93;;
8702;SDS011;9002;42.708;23.186;2023-05-16T02:53:54;5.20;;;4.80;;
8702;SDS011;9002;42.708;23.186;2023-05-16T02:56:23;5.17;;;4.77;;
8702;SDS011;9002;42.708;23.186;2023-05-16T02:58:52;4.97;;;4.57;;
8702;SDS011;9002;42.708;23.186;2023-05-16T03:01:20;5.27;;;4.87;;
8702;SDS011;9002;42.708;23.186;2023-05-16T03:03:46;5.30;;;4.90;;
8702;SDS011;9002;42.708;23.186;2023-05-16T03:06:13;5.23;;;4.83;;
8702;SDS011;9002;42.708;23.186;2023-05-16T03:08:41;4.93;;;4.53;;
8702;SDS011;9002;42.708;23.186;2023-05-16T03:11:08;5.00;;;4.60;;
8702;SDS011;9002;42.708;23.186;2023-05-16T03:13:35;4.97;;;4.57;;
8702;SDS011;9002;42.708;23.186;2023-05-16T03:16:02;5.40;;;4.90;;
8702;SDS011;9002;42.708;23.186;2023-05-16T03:18:29;4.97;;;4.57;;
8702;SDS011;9002;42.708;23.186;2023-05-16T03:20:57;4.80;;;4.50;;
8702;SDS011;9002;42.708;23.186;2023-05-16T03:23:24;5.10;;;4.60;;
8702;SDS011;9002;42.708;23.186;2023-05-16T03:25:52;5.23;;;4.83;;
8702;SDS011;9002;42.708;23.186;2023-05-16T03:28:20;4.80;;;4.50;;
8702;SDS011;9002;42.708;23.186;2023-05-16T03:30:47;5.00;;;4.60;;
8702;SDS011;9002;42.708;23.186;2023-05-16T03:33:14;4.60;;;4.10;;
8702;SDS011;9002;42.708;23.186;2023-05-16T03:35:40;5.13;;;4.73;;
8702;SDS011;9002;42.708;23.186;2023-05-16T03:38:08;4.87;;;4.47;;
8702;SDS011;9002;42.708;23.186;2023-05-16T03:40:35;5.07;;;4.67;;
8702;SDS011;9002;42.708;23.186;2023-05-16T03:43:04;4.80;;;4.40;;
8702;SDS011;9002;42.708;23.186;2023-05-16T03:45:31;4.87;;;4.50;;
8702;SDS011;9002;42.708;23.186;2023-05-16T03:47:57;4.57;;;4.23;;
8702;SDS011;9002;42.708;23.186;2023-05-16T03:50:24;4.67;;;4.33;;
8702;SDS011;9002;42.708;23.186;2023-05-16T03:52:51;5.03;;;4.63;;
8702;SDS011;9002;42.708;23.186;2023-05-16T03:55:18;4.70;;;4.30;;
8702;SDS011;9002;42.708;23.186;2023-05-16T03:57:45;5.43;;;5.00;;
8702;SDS011;9002;42.708;23.186;2023-05-16T04:00:15;4.70;;;4.30;;
8702;SDS011;9002;42.708;23.186;2023-05-16T04:02:42;5.33;;;4.93;;
8702;SDS011;9002;42.708;23.186;2023-05-16T04:05:09;4.77;;;4.37;;
8702;SDS011;9002;42.708;23.186;2023-05-16T04:07:37;4.80;;;4.40;;
8702;SDS011;9002;42.708;23.186;2023-05-16T04:10:05;4.73;;;4.33;;
8702;SDS011;9002;42.708;23.186;2023-05-16T04:12:32;4.87;;;4.47;;
8702;SDS011;9002;42.708;23.186;2023-05-16T04:14:59;4.93;;;4.53;;
8702;SDS011;9002;42.708;23.186;2023-05-16T04:17:27;5.03;;;4.70;;
8702;SDS011;9002;42.708;23.186;2023-05-16T04:19:54;5.10;;;4.70;;
8702;SDS011;9002;42.708;23.186;2023-05-16T04:22:21;5.20;;;4.77;;
8702;SDS011;9002;42.708;23.186;2023-05-16T04:24:48;5.33;;;4.83;;
8702;SDS011;9002;42.708;23.186;2023-05-16T04:27:15;4.87;;;4.47;;
8702;SDS011;9002;42.708;23.186;2023-05-16T04:29:41;4.87;;;4.47;;
8702;SDS011;9002;42.708;23.186;2023-05-16T04:32:08;5.00;;;4.60;;
8702;SDS011;9002;42.708;23.186;2023-05-16T04:34:37;5.03;;;4.63;;
8702;SDS011;9002;42.708;23.186;2023-05-16T04:37:05;4.87;;;4.47;;
8702;SDS011;9002;42.708;23.186;2023-05-16T04:39:33;4.97;;;4.57;;
8702;SDS011;9002;42.708;23.186;2023-05-16T04:42:00;4.57;;;4.17;;
8702;SDS011;9002;42.708;23.186;2023-05-16T04:44:27;5.00;;;4.60;;
8702;SDS011;9002;42.708;23.186;2023-05-16T04:46:54;5.00;;;4.60;;
8702;SDS011;9002;42.708;23.186;2023-05-16T04:49:21;4.90;;;4.50;;
8702;SDS011;9002;42.708;23.186;2023-05-16T04:51:49;5.20;;;4.80;;
8702;SDS011;9002;42.708;23.186;2023-05-16T04:54:16;4.97;;;4.57;;
8702;SDS011;9002;42.708;23.186;2023-05-16T04:56:43;4.90;;;4.50;;
8702;SDS011;9002;42.708;23.186;2023-05-16T04:59:10;4.40;;;4.10;;
8702;SDS011;9002;42.708;23.186;2023-05-16T05:01:37;4.93;;;4.53;;
8702;SDS011;9002;42.708;23.186;2023-05-16T05:04:04;4.70;;;4.30;;
8702;SDS011;9002;42.708;23.186;2023-05-16T05:06:30;5.60;;;5.10;;
8702;SDS011;9002;42.708;23.186;2023-05-16T05:08:59;5.07;;;4.67;;
8702;SDS011;9002;42.708;23.186;2023-05-16T05:11:25;4.93;;;4.53;;
8702;SDS011;9002;42.708;23.186;2023-05-16T05:13:52;4.20;;;3.90;;
8702;SDS011;9002;42.708;23.186;2023-05-16T05:16:19;5.30;;;4.80;;
8702;SDS011;9002;42.708;23.186;2023-05-16T05:18:46;4.40;;;4.03;;
8702;SDS011;9002;42.708;23.186;2023-05-16T05:21:13;5.03;;;4.63;;
8702;SDS011;9002;42.708;23.186;2023-05-16T05:23:40;4.87;;;4.47;;
8702;SDS011;9002;42.708;23.186;2023-05-16T05:26:08;4.57;;;4.27;;
8702;SDS011;9002;42.708;23.186;2023-05-16T05:28:35;4.50;;;4.10;;
8702;SDS011;9002;42.708;23.186;2023-05-16T05:31:03;5.00;;;4.60;;
8702;SDS011;9002;42.708;23.186;2023-05-16T05:33:30;5.23;;;4.83;;
8702;SDS011;9002;42.708;23.186;2023-05-16T05:35:57;5.00;;;4.60;;
8702;SDS011;9002;42.708;23.186;2023-05-16T05:38:24;4.97;;;4.57;;
8702;SDS011;9002;42.708;23.186;2023-05-16T05:40:51;5.67;;;5.10;;
8702;SDS011;9002;42.708;23.186;2023-05-16T05:43:19;4.97;;;4.57;;
8702;SDS011;9002;42.708;23.186;2023-05-16T05:45:46;5.10;;;4.70;;
8702;SDS011;9002;42.708;23.186;2023-05-16T05:48:13;4.50;;;4.20;;
8702;SDS011;9002;42.708;23.186;2023-05-16T05:50:39;5.27;;;4.80;;
8702;SDS011;9002;42.708;23.186;2023-05-16T05:53:06;4.37;;;4.07;;
8702;SDS011;9002;42.708;23.186;2023-05-16T05:55:33;4.90;;;4.50;;
8702;SDS011;9002;42.708;23.186;2023-05-16T05:58:00;5.00;;;4.60;;
8702;SDS011;9002;42.708;23.186;2023-05-16T06:00:28;4.40;;;4.10;;
8702;SDS011;9002;42.708;23.186;2023-05-16T06:02:55;5.10;;;4.70;;
8702;SDS011;9002;42.708;23.186;2023-05-16T06:05:22;5.47;;;4.97;;
8702;SDS011;9002;42.708;23.186;2023-05-16T06:07:49;4.83;;;4.43;;
8702;SDS011;9002;42.708;23.186;2023-05-16T06:10:16;4.93;;;4.53;;
8702;SDS011;9002;42.708;23.186;2023-05-16T06:12:43;5.33;;;4.70;;
8702;SDS011;9002;42.708;23.186;2023-05-16T06:15:10;4.90;;;4.60;;
8702;SDS011;9002;42.708;23.186;2023-05-16T06:17:38;5.43;;;4.93;;
8702;SDS011;9002;42.708;23.186;2023-05-16T06:20:06;4.30;;;4.00;;
8702;SDS011;9002;42.708;23.186;2023-05-16T06:22:33;4.63;;;4.27;;
8702;SDS011;9002;42.708;23.186;2023-05-16T06:25:00;4.33;;;4.03;;
8702;SDS011;9002;42.708;23.186;2023-05-16T06:27:27;4.90;;;4.50;;
8702;SDS011;9002;42.708;23.186;2023-05-16T06:29:54;4.57;;;4.23;;
8702;SDS011;9002;42.708;23.186;2023-05-16T06:32:21;4.80;;;4.40;;
8702;SDS011;9002;42.708;23.186;2023-05-16T06:34:49;4.60;;;4.30;;
8702;SDS011;9002;42.708;23.186;2023-05-16T06:37:16;5.20;;;4.80;;
8702;SDS011;9002;42.708;23.186;2023-05-16T06:39:43;4.77;;;4.37;;
8702;SDS011;9002;42.708;23.186;2023-05-16T06:42:09;4.70;;;4.30;;
8702;SDS011;9002;42.708;23.186;2023-05-16T06:44:37;4.87;;;4.47;;
8702;SDS011;9002;42.708;23.186;2023-05-16T06:47:03;5.20;;;4.80;;
8702;SDS011;9002;42.708;23.186;2023-05-16T06:49:31;4.90;;;4.50;;
8702;SDS011;9002;42.708;23.186;2023-05-16T06:51:59;4.80;;;4.40;;
8702;SDS011;9002;42.708;23.186;2023-05-16T06:54:26;4.83;;;4.43;;
8702;SDS011;9002;42.708;23.186;2023-05-16T06:56:53;5.33;;;4.83;;
8702;SDS011;9002;42.708;23.186;2023-05-16T06:59:19;4.83;;;4.43;;
8702;SDS011;9002;42.708;23.186;2023-05-16T07:01:46;5.17;;;4.77;;
8702;SDS011;9002;42.708;23.186;2023-05-16T07:04:13;4.90;;;4.50;;
8702;SDS011;9002;42.708;23.186;2023-05-16T07:06:40;5.10;;;4.70;;
8702;SDS011;9002;42.708;23.186;2023-05-16T07:09:08;4.90;;;4.50;;
8702;SDS011;9002;42.708;23.186;2023-05-16T07:11:35;5.00;;;4.50;;
8702;SDS011;9002;42.708;23.186;2023-05-16T07:14:02;5.20;;;4.80;;
8702;SDS011;9002;42.708;23.186;2023-05-16T07:16:29;5.27;;;4.87;;
8702;SDS011;9002;42.708;23.186;2023-05-16T07:18:56;5.27;;;4.77;;
8702;SDS011;9002;42.708;23.186;2023-05-16T07:21:23;5.07;;;4.60;;
8702;SDS011;9002;42.708;23.186;2023-05-16T07:23:50;6.40;;;4.60;;
8702;SDS011;9002;42.708;23.186;2023-05-16T07:26:18;4.90;;;4.50;;
8702;SDS011;9002;42.708;23.186;2023-05-16T07:28:47;4.63;;;4.33;;
8702;SDS011;9002;42.708;23.186;2023-05-16T10:44:14;14.33;;;10.77;;
8702;SDS011;9002;42.708;23.186;2023-05-16T10:46:42;13.37;;;10.03;;
8702;SDS011;9002;42.708;23.186;2023-05-16T10:49:19;15.10;;;9.17;;
8702;SDS011;9002;42.708;23.186;2023-05-16T10:51:49;14.13;;;9.87;;
8702;SDS011;9002;42.708;23.186;2023-05-16T10:54:32;11.97;;;9.80;;
8702;SDS011;9002;42.708;23.186;2023-05-16T10:57:04;11.90;;;9.67;;
8702;SDS011;9002;42.708;23.186;2023-05-16T10:59:40;11.63;;;9.53;;
8702;SDS011;9002;42.708;23.186;2023-05-16T11:02:22;12.10;;;8.57;;
8702;SDS011;9002;42.708;23.186;2023-05-16T11:04:50;10.63;;;9.13;;
8702;SDS011;9002;42.708;23.186;2023-05-16T11:07:18;12.23;;;9.40;;
8702;SDS011;9002;42.708;23.186;2023-05-16T11:09:51;11.20;;;10.00;;
8702;SDS011;9002;42.708;23.186;2023-05-16T11:12:35;12.53;;;10.40;;
8702;SDS011;9002;42.708;23.186;2023-05-16T11:15:17;11.10;;;9.83;;
8702;SDS011;9002;42.708;23.186;2023-05-16T11:17:49;13.13;;;10.40;;
8702;SDS011;9002;42.708;23.186;2023-05-16T11:20:26;17.17;;;11.17;;
8702;SDS011;9002;42.708;23.186;2023-05-16T12:36:52;11.90;;;10.10;;
8702;SDS011;9002;42.708;23.186;2023-05-16T12:39:19;16.00;;;11.80;;
8702;SDS011;9002;42.708;23.186;2023-05-16T12:41:47;19.87;;;10.73;;
8702;SDS011;9002;42.708;23.186;2023-05-16T12:44:14;71.63;;;64.70;;
8702;SDS011;9002;42.708;23.186;2023-05-16T12:46:43;56.07;;;50.67;;
8702;SDS011;9002;42.708;23.186;2023-05-16T12:49:11;32.90;;;29.40;;
8702;SDS011;9002;42.708;23.186;2023-05-16T12:51:38;62.73;;;56.57;;
8702;SDS011;9002;42.708;23.186;2023-05-16T12:54:08;16.33;;;14.17;;
8702;SDS011;9002;42.708;23.186;2023-05-16T12:56:36;14.63;;;11.83;;
8702;SDS011;9002;42.708;23.186;2023-05-16T12:59:04;18.43;;;12.77;;
8702;SDS011;9002;42.708;23.186;2023-05-16T13:01:30;12.27;;;10.70;;
8702;SDS011;9002;42.708;23.186;2023-05-16T13:03:57;16.20;;;11.20;;
8702;SDS011;9002;42.708;23.186;2023-05-16T13:06:24;16.23;;;10.67;;
8702;SDS011;9002;42.708;23.186;2023-05-16T13:08:52;23.30;;;12.97;;
8702;SDS011;9002;42.708;23.186;2023-05-16T13:11:20;18.60;;;13.40;;
8702;SDS011;9002;42.708;23.186;2023-05-16T13:13:47;17.83;;;13.37;;
8702;SDS011;9002;42.708;23.186;2023-05-16T13:16:14;19.10;;;13.93;;
8702;SDS011;9002;42.708;23.186;2023-05-16T13:18:41;18.60;;;11.73;;
8702;SDS011;9002;42.708;23.186;2023-05-16T13:21:08;14.50;;;10.53;;
8702;SDS011;9002;42.708;23.186;2023-05-16T13:23:35;15.77;;;10.40;;
8702;SDS011;9002;42.708;23.186;2023-05-16T13:26:01;13.83;;;10.70;;
8702;SDS011;9002;42.708;23.186;2023-05-16T13:28:30;11.93;;;10.13;;
8702;SDS011;9002;42.708;23.186;2023-05-16T13:30:57;14.63;;;13.03;;
8702;SDS011;9002;42.708;23.186;2023-05-16T13:33:24;20.37;;;13.20;;
8702;SDS011;9002;42.708;23.186;2023-05-16T13:35:51;19.10;;;13.67;;
8702;SDS011;9002;42.708;23.186;2023-05-16T13:38:19;15.83;;;12.10;;
8702;SDS011;9002;42.708;23.186;2023-05-16T13:40:46;14.23;;;12.10;;
8702;SDS011;9002;42.708;23.186;2023-05-16T13:43:13;22.23;;;12.13;;
8702;SDS011;9002;42.708;23.186;2023-05-16T13:45:41;17.00;;;11.03;;
8702;SDS011;9002;42.708;23.186;2023-05-16T13:48:09;19.60;;;12.97;;
8702;SDS011;9002;42.708;23.186;2023-05-16T13:50:36;18.93;;;12.70;;
8702;SDS011;9002;42.708;23.186;2023-05-16T13:53:03;20.27;;;13.87;;
8702;SDS011;9002;42.708;23.186;2023-05-16T13:55:31;14.93;;;12.23;;
8702;SDS011;9002;42.708;23.186;2023-05-16T13:57:57;12.73;;;10.23;;
8702;SDS011;9002;42.708;23.186;2023-05-16T14:00:25;12.67;;;10.77;;
8702;SDS011;9002;42.708;23.186;2023-05-16T14:02:53;16.87;;;11.23;;
8702;SDS011;9002;42.708;23.186;2023-05-16T14:05:20;24.20;;;13.67;;
8702;SDS011;9002;42.708;23.186;2023-05-16T14:07:47;24.20;;;13.63;;
8702;SDS011;9002;42.708;23.186;2023-05-16T15:14:15;21.03;;;14.97;;
8702;SDS011;9002;42.708;23.186;2023-05-16T15:16:42;14.13;;;11.20;;
8702;SDS011;9002;42.708;23.186;2023-05-16T15:19:11;18.83;;;13.70;;
8702;SDS011;9002;42.708;23.186;2023-05-16T15:21:37;19.20;;;13.37;;
8702;SDS011;9002;42.708;23.186;2023-05-16T15:24:05;20.20;;;13.33;;
8702;SDS011;9002;42.708;23.186;2023-05-16T15:26:33;17.93;;;14.47;;
8702;SDS011;9002;42.708;23.186;2023-05-16T15:29:00;15.20;;;12.57;;
8702;SDS011;9002;42.708;23.186;2023-05-16T15:31:28;19.90;;;14.27;;
8702;SDS011;9002;42.708;23.186;2023-05-16T15:33:56;19.63;;;14.33;;
8702;SDS011;9002;42.708;23.186;2023-05-16T15:36:22;16.07;;;13.03;;
8702;SDS011;9002;42.708;23.186;2023-05-16T15:38:49;16.87;;;13.67;;
8702;SDS011;9002;42.708;23.186;2023-05-16T15:41:17;17.37;;;14.93;;
8702;SDS011;9002;42.708;23.186;2023-05-16T15:43:43;18.13;;;13.77;;
8702;SDS011;9002;42.708;23.186;2023-05-16T15:46:10;16.70;;;14.87;;
8702;SDS011;9002;42.708;23.186;2023-05-16T15:48:38;23.07;;;18.20;;
8702;SDS011;9002;42.708;23.186;2023-05-16T15:51:07;20.93;;;18.73;;
8702;SDS011;9002;42.708;23.186;2023-05-16T15:53:33;26.10;;;22.13;;
8702;SDS011;9002;42.708;23.186;2023-05-16T15:56:00;24.27;;;21.67;;
8702;SDS011;9002;42.708;23.186;2023-05-16T15:58:27;24.63;;;21.67;;
8702;SDS011;9002;42.708;23.186;2023-05-16T16:00:54;27.43;;;24.43;;
8702;SDS011;9002;42.708;23.186;2023-05-16T16:03:20;33.77;;;27.47;;
8702;SDS011;9002;42.708;23.186;2023-05-16T16:05:49;28.43;;;24.87;;
8702;SDS011;9002;42.708;23.186;2023-05-16T16:08:16;29.23;;;23.47;;
8702;SDS011;9002;42.708;23.186;2023-05-16T16:10:44;27.73;;;23.67;;
8702;SDS011;9002;42.708;23.186;2023-05-16T16:13:10;32.37;;;24.77;;
8702;SDS011;9002;42.708;23.186;2023-05-16T16:15:37;26.53;;;23.60;;
8702;SDS011;9002;42.708;23.186;2023-05-16T16:18:06;25.20;;;22.50;;
8702;SDS011;9002;42.708;23.186;2023-05-16T16:20:33;25.70;;;21.50;;
8702;SDS011;9002;42.708;23.186;2023-05-16T16:23:01;24.87;;;20.37;;
8702;SDS011;9002;42.708;23.186;2023-05-16T16:25:28;21.30;;;19.07;;
8702;SDS011;9002;42.708;23.186;2023-05-16T16:58:58;18.90;;;15.97;;
8702;SDS011;9002;42.708;23.186;2023-05-16T17:01:25;24.00;;;16.90;;
8702;SDS011;9002;42.708;23.186;2023-05-16T17:03:55;18.23;;;16.00;;
8702;SDS011;9002;42.708;23.186;2023-05-16T17:06:22;19.67;;;16.80;;
8702;SDS011;9002;42.708;23.186;2023-05-16T17:08:49;21.70;;;16.47;;
8702;SDS011;9002;42.708;23.186;2023-05-16T17:11:16;20.60;;;17.53;;
8702;SDS011;9002;42.708;23.186;2023-05-16T17:13:47;24.57;;;18.47;;
8702;SDS011;9002;42.708;23.186;2023-05-16T17:16:15;22.50;;;18.43;;
8702;SDS011;9002;42.708;23.186;2023-05-16T17:18:42;21.27;;;18.33;;
8702;SDS011;9002;42.708;23.186;2023-05-16T17:21:09;21.97;;;18.23;;
8702;SDS011;9002;42.708;23.186;2023-05-16T17:23:37;20.97;;;17.77;;
8702;SDS011;9002;42.708;23.186;2023-05-16T17:26:03;28.17;;;20.33;;
8702;SDS011;9002;42.708;23.186;2023-05-16T17:28:30;21.83;;;19.63;;
8702;SDS011;9002;42.708;23.186;2023-05-16T17:30:57;22.63;;;18.80;;
8702;SDS011;9002;42.708;23.186;2023-05-16T17:33:26;21.93;;;19.73;;
8702;SDS011;9002;42.708;23.186;2023-05-16T17:35:53;26.73;;;21.67;;
8702;SDS011;9002;42.708;23.186;2023-05-16T17:38:20;23.67;;;20.83;;
8702;SDS011;9002;42.708;23.186;2023-05-16T17:40:47;24.00;;;19.77;;
8702;SDS011;9002;42.708;23.186;2023-05-16T17:43:13;21.47;;;19.20;;
8702;SDS011;9002;42.708;23.186;2023-05-16T17:45:40;23.53;;;18.30;;
8702;SDS011;9002;42.708;23.186;2023-05-16T20:02:32;19.20;;;16.50;;
8702;SDS011;9002;42.708;23.186;2023-05-16T20:04:58;21.50;;;16.33;;
8702;SDS011;9002;42.708;23.186;2023-05-16T20:07:25;19.27;;;15.57;;
8702;SDS011;9002;42.708;23.186;2023-05-16T20:09:52;18.60;;;15.63;;
8702;SDS011;9002;42.708;23.186;2023-05-16T20:12:19;21.13;;;15.60;;
8702;SDS011;9002;42.708;23.186;2023-05-16T20:14:46;19.03;;;15.10;;
8702;SDS011;9002;42.708;23.186;2023-05-16T20:17:13;18.93;;;15.13;;
8702;SDS011;9002;42.708;23.186;2023-05-16T20:19:41;18.60;;;14.87;;
8702;SDS011;9002;42.708;23.186;2023-05-16T20:22:08;16.77;;;13.80;;
8702;SDS011;9002;42.708;23.186;2023-05-16T20:24:35;16.37;;;13.17;;
8702;SDS011;9002;42.708;23.186;2023-05-16T20:27:02;14.33;;;12.93;;
8702;SDS011;9002;42.708;23.186;2023-05-16T20:29:29;15.60;;;12.63;;
8702;SDS011;9002;42.708;23.186;2023-05-16T20:31:57;13.67;;;12.17;;
8702;SDS011;9002;42.708;23.186;2023-05-16T20:34:24;16.13;;;12.33;;
8702;SDS011;9002;42.708;23.186;2023-05-16T20:36:53;18.67;;;12.23;;
8702;SDS011;9002;42.708;23.186;2023-05-16T20:39:20;14.17;;;12.27;;
8702;SDS011;9002;42.708;23.186;2023-05-16T20:41:46;15.13;;;12.57;;
8702;SDS011;9002;42.708;23.186;2023-05-16T20:44:13;19.47;;;16.87;;
8702;SDS011;9002;42.708;23.186;2023-05-16T20:46:40;21.03;;;18.77;;
8702;SDS011;9002;42.708;23.186;2023-05-16T20:49:07;19.93;;;17.90;;
8702;SDS011;9002;42.708;23.186;2023-05-16T20:51:34;26.00;;;19.73;;
8702;SDS011;9002;42.708;23.186;2023-05-16T20:54:02;21.57;;;19.43;;
8702;SDS011;9002;42.708;23.186;2023-05-16T20:56:29;22.50;;;19.87;;
8702;SDS011;9002;42.708;23.186;2023-05-16T20:58:56;23.33;;;20.93;;
8702;SDS011;9002;42.708;23.186;2023-05-16T21:01:23;26.20;;;21.70;;
8702;SDS011;9002;42.708;23.186;2023-05-16T21:03:50;23.03;;;20.57;;
8702;SDS011;9002;42.708;23.186;2023-05-16T21:06:17;24.90;;;21.27;;
8702;SDS011;9002;42.708;23.186;2023-05-16T21:08:44;21.63;;;19.50;;
8702;SDS011;9002;42.708;23.186;2023-05-16T21:11:12;20.77;;;17.50;;
8702;SDS011;9002;42.708;23.186;2023-05-16T21:13:39;16.37;;;13.70;;
8702;SDS011;9002;42.708;23.186;2023-05-16T21:16:06;21.47;;;15.60;;
8702;SDS011;9002;42.708;23.186;2023-05-16T21:18:34;19.33;;;15.40;;
8702;SDS011;9002;42.708;23.186;2023-05-16T21:21:00;16.83;;;14.50;;
8702;SDS011;9002;42.708;23.186;2023-05-16T21:23:27;19.77;;;15.33;;
8702;SDS011;9002;42.708;23.186;2023-05-16T21:25:54;20.60;;;15.17;;
8702;SDS011;9002;42.708;23.186;2023-05-16T21:28:22;21.10;;;15.90;;
8702;SDS011;9002;42.708;23.186;2023-05-16T21:30:49;17.97;;;15.83;;
8702;SDS011;9002;42.708;23.186;2023-05-16T21:33:16;17.60;;;15.80;;
8702;SDS011;9002;42.708;23.186;2023-05-16T21:35:43;21.00;;;15.97;;
8702;SDS011;9002;42.708;23.186;2023-05-16T21:38:09;17.67;;;15.63;;
8702;SDS011;9002;42.708;23.186;2023-05-16T21:40:36;24.07;;;17.13;;
8702;SDS011;9002;42.708;23.186;2023-05-16T21:43:03;19.93;;;17.57;;
8702;SDS011;9002;42.708;23.186;2023-05-16T21:45:31;20.10;;;17.97;;
8702;SDS011;9002;42.708;23.186;2023-05-16T21:47:58;23.47;;;18.77;;
8702;SDS011;9002;42.708;23.186;2023-05-16T21:50:25;20.80;;;18.53;;
8702;SDS011;9002;42.708;23.186;2023-05-16T21:52:52;24.77;;;18.67;;
8702;SDS011;9002;42.708;23.186;2023-05-16T21:55:19;21.07;;;18.87;;
8702;SDS011;9002;42.708;23.186;2023-05-16T21:57:46;22.50;;;18.80;;
8702;SDS011;9002;42.708;23.186;2023-05-16T22:00:13;21.67;;;18.90;;
8702;SDS011;9002;42.708;23.186;2023-05-16T22:02:42;21.93;;;19.60;;
8702;SDS011;9002;42.708;23.186;2023-05-16T22:05:10;24.13;;;20.27;;
8702;SDS011;9002;42.708;23.186;2023-05-16T22:07:37;22.13;;;19.83;;
8702;SDS011;9002;42.708;23.186;2023-05-16T22:10:04;23.30;;;19.57;;
8702;SDS011;9002;42.708;23.186;2023-05-16T22:12:32;23.27;;;20.87;;
8702;SDS011;9002;42.708;23.186;2023-05-16T23:53:58;35.03;;;28.97;;
8702;SDS011;9002;42.708;23.186;2023-05-16T23:56:24;34.97;;;29.10;;
8702;SDS011;9002;42.708;23.186;2023-05-16T23:58:51;35.47;;;30.03;;
